sensor_id;sensor_type;location;lat;lon;timestamp;pressure;altitude;pressure_sealevel;temperature;humidity
60820;BME280;46641;48.904;9.126;2023-04-01T00:03:05;97208.78;;;15.35;52.05
60820;BME280;46641;48.904;9.126;2023-04-01T00:07:55;97212.88;;;15.31;52.42
60820;BME280;46641;48.904;9.126;2023-04-01T00:12:45;97208.59;;;15.30;52.39
60820;BME280;46641;48.904;9.126;2023-04-01T00:17:36;97201.09;;;15.27;52.41
60820;BME280;46641;48.904;9.126;2023-04-01T00:22:26;97211.66;;;15.27;52.48
60820;BME280;46641;48.904;9.126;2023-04-01T00:27:17;97209.00;;;15.27;52.18
60820;BME280;46641;48.904;9.126;2023-04-01T00:32:07;97204.38;;;15.23;52.41
60820;BME280;46641;48.904;9.126;2023-04-01T00:36:57;97211.69;;;15.20;52.46
60820;BME280;46641;48.904;9.126;2023-04-01T00:41:47;97211.91;;;15.19;52.60
60820;BME280;46641;48.904;9.126;2023-04-01T00:46:38;97219.81;;;15.19;52.42
60820;BME280;46641;48.904;9.126;2023-04-01T00:51:29;97217.16;;;15.19;52.54
60820;BME280;46641;48.904;9.126;2023-04-01T00:56:48;97211.28;;;15.17;52.27
60820;BME280;46641;48.904;9.126;2023-04-01T01:01:41;97209.69;;;15.16;52.62
60820;BME280;46641;48.904;9.126;2023-04-01T01:06:41;97209.06;;;15.14;52.54
60820;BME280;46641;48.904;9.126;2023-04-01T01:11:48;97199.97;;;15.10;52.55
60820;BME280;46641;48.904;9.126;2023-04-01T01:16:46;97211.53;;;15.09;52.61
60820;BME280;46641;48.904;9.126;2023-04-01T01:26:45;97202.00;;;15.08;52.64
60820;BME280;46641;48.904;9.126;2023-04-01T01:31:57;97209.31;;;15.06;52.56
60820;BME280;46641;48.904;9.126;2023-04-01T01:37:00;97206.88;;;15.04;52.80
60820;BME280;46641;48.904;9.126;2023-04-01T01:41:52;97202.03;;;15.01;52.90
60820;BME280;46641;48.904;9.126;2023-04-01T01:46:45;97198.81;;;14.99;52.76
60820;BME280;46641;48.904;9.126;2023-04-01T01:51:35;97210.13;;;15.00;52.76
60820;BME280;46641;48.904;9.126;2023-04-01T01:56:27;97214.78;;;14.98;52.89
60820;BME280;46641;48.904;9.126;2023-04-01T02:01:26;97221.09;;;14.96;52.95
60820;BME280;46641;48.904;9.126;2023-04-01T02:06:20;97202.03;;;14.94;53.17
60820;BME280;46641;48.904;9.126;2023-04-01T02:11:15;97207.53;;;14.93;53.18
60820;BME280;46641;48.904;9.126;2023-04-01T02:16:12;97212.56;;;14.94;53.06
60820;BME280;46641;48.904;9.126;2023-04-01T02:21:05;97209.13;;;14.94;53.10
60820;BME280;46641;48.904;9.126;2023-04-01T02:25:56;97203.28;;;14.92;53.08
60820;BME280;46641;48.904;9.126;2023-04-01T02:30:47;97201.25;;;14.87;53.18
60820;BME280;46641;48.904;9.126;2023-04-01T02:35:39;97207.56;;;14.86;53.19
60820;BME280;46641;48.904;9.126;2023-04-01T02:40:41;97209.56;;;14.84;53.17
60820;BME280;46641;48.904;9.126;2023-04-01T02:45:31;97212.59;;;14.88;53.10
60820;BME280;46641;48.904;9.126;2023-04-01T02:50:21;97221.53;;;14.87;52.98
60820;BME280;46641;48.904;9.126;2023-04-01T02:55:11;97229.66;;;14.85;53.38
60820;BME280;46641;48.904;9.126;2023-04-01T03:00:02;97230.06;;;14.82;53.42
60820;BME280;46641;48.904;9.126;2023-04-01T03:04:53;97205.31;;;14.83;53.24
60820;BME280;46641;48.904;9.126;2023-04-01T03:09:43;97217.88;;;14.81;53.19
60820;BME280;46641;48.904;9.126;2023-04-01T03:14:33;97212.84;;;14.80;53.30
60820;BME280;46641;48.904;9.126;2023-04-01T03:19:23;97217.88;;;14.81;53.32
60820;BME280;46641;48.904;9.126;2023-04-01T03:24:14;97217.88;;;14.81;53.11
60820;BME280;46641;48.904;9.126;2023-04-01T03:29:04;97211.41;;;14.77;53.46
60820;BME280;46641;48.904;9.126;2023-04-01T03:33:55;97217.09;;;14.74;53.32
60820;BME280;46641;48.904;9.126;2023-04-01T03:38:45;97208.38;;;14.73;53.40
60820;BME280;46641;48.904;9.126;2023-04-01T03:43:35;97202.50;;;14.71;53.40
60820;BME280;46641;48.904;9.126;2023-04-01T03:48:25;97202.31;;;14.73;53.39
60820;BME280;46641;48.904;9.126;2023-04-01T03:53:16;97205.34;;;14.70;53.28
60820;BME280;46641;48.904;9.126;2023-04-01T03:58:07;97201.91;;;14.69;53.47
60820;BME280;46641;48.904;9.126;2023-04-01T04:02:58;97196.84;;;14.68;53.53
60820;BME280;46641;48.904;9.126;2023-04-01T04:07:50;97185.50;;;14.67;53.49
60820;BME280;46641;48.904;9.126;2023-04-01T04:12:41;97186.72;;;14.65;53.47
60820;BME280;46641;48.904;9.126;2023-04-01T04:17:31;97182.25;;;14.65;53.47
60820;BME280;46641;48.904;9.126;2023-04-01T04:22:21;97183.09;;;14.66;53.33
60820;BME280;46641;48.904;9.126;2023-04-01T04:27:11;97182.66;;;14.62;53.38
60820;BME280;46641;48.904;9.126;2023-04-01T04:32:02;97176.59;;;14.62;53.42
60820;BME280;46641;48.904;9.126;2023-04-01T04:36:52;97185.75;;;14.59;53.33
60820;BME280;46641;48.904;9.126;2023-04-01T04:41:42;97187.75;;;14.57;53.63
60820;BME280;46641;48.904;9.126;2023-04-01T04:46:33;97174.19;;;14.54;53.79
60820;BME280;46641;48.904;9.126;2023-04-01T04:51:24;97176.59;;;14.55;53.49
60820;BME280;46641;48.904;9.126;2023-04-01T04:56:18;97178.66;;;14.53;53.20
60820;BME280;46641;48.904;9.126;2023-04-01T05:01:11;97184.13;;;14.52;53.64
60820;BME280;46641;48.904;9.126;2023-04-01T05:06:02;97181.84;;;14.48;53.58
60820;BME280;46641;48.904;9.126;2023-04-01T05:10:53;97167.69;;;14.49;53.58
60820;BME280;46641;48.904;9.126;2023-04-01T05:15:43;97174.38;;;14.45;53.69
60820;BME280;46641;48.904;9.126;2023-04-01T05:20:33;97171.75;;;14.45;53.62
60820;BME280;46641;48.904;9.126;2023-04-01T05:25:24;97178.03;;;14.44;53.67
60820;BME280;46641;48.904;9.126;2023-04-01T05:30:14;97167.50;;;14.44;53.65
60820;BME280;46641;48.904;9.126;2023-04-01T05:35:05;97155.97;;;13.72;54.23
60820;BME280;46641;48.904;9.126;2023-04-01T05:39:56;97156.00;;;13.86;53.33
60820;BME280;46641;48.904;9.126;2023-04-01T05:44:48;97151.13;;;13.89;53.38
60820;BME280;46641;48.904;9.126;2023-04-01T05:49:38;97151.53;;;13.86;53.39
60820;BME280;46641;48.904;9.126;2023-04-01T05:54:29;97152.97;;;13.82;53.58
60820;BME280;46641;48.904;9.126;2023-04-01T05:59:19;97146.69;;;13.96;53.75
60820;BME280;46641;48.904;9.126;2023-04-01T06:04:13;97149.91;;;14.05;53.08
60820;BME280;46641;48.904;9.126;2023-04-01T06:09:17;97149.31;;;14.10;53.22
60820;BME280;46641;48.904;9.126;2023-04-01T06:14:23;97154.56;;;14.16;52.93
60820;BME280;46641;48.904;9.126;2023-04-01T07:00:25;97170.16;;;14.24;53.37
60820;BME280;46641;48.904;9.126;2023-04-01T07:05:17;97164.66;;;14.26;53.44
60820;BME280;46641;48.904;9.126;2023-04-01T07:10:17;97163.69;;;14.27;53.24
60820;BME280;46641;48.904;9.126;2023-04-01T07:15:21;97176.63;;;14.29;53.22
60820;BME280;46641;48.904;9.126;2023-04-01T07:20:22;97179.06;;;14.30;53.46
60820;BME280;46641;48.904;9.126;2023-04-01T07:25:16;97182.09;;;14.27;53.31
60820;BME280;46641;48.904;9.126;2023-04-01T07:30:14;97177.44;;;14.29;53.39
60820;BME280;46641;48.904;9.126;2023-04-01T07:35:22;97176.44;;;14.30;53.59
60820;BME280;46641;48.904;9.126;2023-04-01T07:55:59;97191.38;;;14.36;53.44
60820;BME280;46641;48.904;9.126;2023-04-01T08:06:00;97196.25;;;14.39;53.38
60820;BME280;46641;48.904;9.126;2023-04-01T08:16:18;97199.31;;;14.43;53.69
60820;BME280;46641;48.904;9.126;2023-04-01T08:21:27;97198.88;;;14.46;53.46
60820;BME280;46641;48.904;9.126;2023-04-01T08:26:36;97197.06;;;14.46;53.16
60820;BME280;46641;48.904;9.126;2023-04-01T08:36:46;97212.28;;;14.51;53.63
60820;BME280;46641;48.904;9.126;2023-04-01T08:46:52;97199.31;;;14.56;53.56
60820;BME280;46641;48.904;9.126;2023-04-01T08:52:06;97201.72;;;14.58;53.64
60820;BME280;46641;48.904;9.126;2023-04-01T09:23:10;97211.22;;;14.65;53.65
60820;BME280;46641;48.904;9.126;2023-04-01T09:28:12;97212.88;;;14.66;53.60
60820;BME280;46641;48.904;9.126;2023-04-01T09:43:54;97216.31;;;14.67;53.58
60820;BME280;46641;48.904;9.126;2023-04-01T10:10:25;97231.28;;;14.73;53.28
60820;BME280;46641;48.904;9.126;2023-04-01T10:25:31;97232.88;;;14.81;53.51
60820;BME280;46641;48.904;9.126;2023-04-01T10:35:44;97234.91;;;14.85;53.13
60820;BME280;46641;48.904;9.126;2023-04-01T10:40:57;97231.25;;;14.86;53.14
60820;BME280;46641;48.904;9.126;2023-04-01T10:46:34;97228.63;;;14.86;53.10
60820;BME280;46641;48.904;9.126;2023-04-01T10:51:38;97230.03;;;14.89;53.33
60820;BME280;46641;48.904;9.126;2023-04-01T11:12:21;97232.03;;;14.93;53.25
60820;BME280;46641;48.904;9.126;2023-04-01T11:17:49;97242.59;;;14.93;53.18
60820;BME280;46641;48.904;9.126;2023-04-01T11:33:09;97242.16;;;14.96;53.10
60820;BME280;46641;48.904;9.126;2023-04-01T11:43:16;97251.28;;;15.01;53.01
60820;BME280;46641;48.904;9.126;2023-04-01T11:53:47;97250.28;;;15.02;53.12
60820;BME280;46641;48.904;9.126;2023-04-01T12:14:42;97268.47;;;15.10;52.95
60820;BME280;46641;48.904;9.126;2023-04-01T12:20:28;97268.28;;;15.11;53.18
60820;BME280;46641;48.904;9.126;2023-04-01T12:52:10;97283.44;;;15.29;52.72
60820;BME280;46641;48.904;9.126;2023-04-01T13:02:51;97289.09;;;15.33;52.71
60820;BME280;46641;48.904;9.126;2023-04-01T13:08:09;97306.13;;;15.30;51.78
60820;BME280;46641;48.904;9.126;2023-04-01T13:28:29;97305.72;;;15.33;52.87
60820;BME280;46641;48.904;9.126;2023-04-01T13:33:42;97312.81;;;15.33;52.58
60820;BME280;46641;48.904;9.126;2023-04-01T13:38:48;97311.81;;;15.34;52.67
60820;BME280;46641;48.904;9.126;2023-04-01T13:43:50;97319.50;;;15.35;52.82
60820;BME280;46641;48.904;9.126;2023-04-01T13:49:16;97318.72;;;15.35;52.73
60820;BME280;46641;48.904;9.126;2023-04-01T14:04:30;97328.66;;;15.26;52.81
60820;BME280;46641;48.904;9.126;2023-04-01T14:15:47;97343.47;;;15.20;50.53
60820;BME280;46641;48.904;9.126;2023-04-01T14:20:22;97336.59;;;15.06;52.06
60820;BME280;46641;48.904;9.126;2023-04-01T14:25:48;97337.63;;;15.12;52.60
60820;BME280;46641;48.904;9.126;2023-04-01T14:36:18;97350.78;;;15.25;53.04
60820;BME280;46641;48.904;9.126;2023-04-01T14:41:17;97349.34;;;15.29;52.89
60820;BME280;46641;48.904;9.126;2023-04-01T14:46:38;97356.84;;;15.32;52.76
60820;BME280;46641;48.904;9.126;2023-04-01T14:51:38;97351.56;;;15.32;52.58
60820;BME280;46641;48.904;9.126;2023-04-01T14:56:41;97353.16;;;15.33;52.45
60820;BME280;46641;48.904;9.126;2023-04-01T15:01:45;97351.34;;;15.34;52.52
60820;BME280;46641;48.904;9.126;2023-04-01T15:16:55;97371.03;;;15.38;52.50
60820;BME280;46641;48.904;9.126;2023-04-01T15:27:24;97374.25;;;15.40;52.55
60820;BME280;46641;48.904;9.126;2023-04-01T15:32:40;97372.44;;;15.40;52.55
60820;BME280;46641;48.904;9.126;2023-04-01T15:37:37;97382.38;;;15.45;52.53
60820;BME280;46641;48.904;9.126;2023-04-01T15:42:44;97384.78;;;15.47;52.77
60820;BME280;46641;48.904;9.126;2023-04-01T15:47:58;97382.16;;;15.47;52.32
60820;BME280;46641;48.904;9.126;2023-04-01T15:52:50;97393.72;;;15.46;52.33
60820;BME280;46641;48.904;9.126;2023-04-01T15:57:55;97388.66;;;15.44;52.43
60820;BME280;46641;48.904;9.126;2023-04-01T16:13:37;97402.84;;;15.43;52.31
60820;BME280;46641;48.904;9.126;2023-04-01T16:23:40;97408.72;;;15.45;52.38
60820;BME280;46641;48.904;9.126;2023-04-01T16:34:08;97421.31;;;15.30;51.62
60820;BME280;46641;48.904;9.126;2023-04-01T16:39:34;97418.50;;;15.25;50.64
60820;BME280;46641;48.904;9.126;2023-04-01T16:44:26;97420.50;;;15.29;51.27
60820;BME280;46641;48.904;9.126;2023-04-01T16:49:25;97409.78;;;15.24;52.22
60820;BME280;46641;48.904;9.126;2023-04-01T16:54:28;97419.50;;;15.30;52.21
60820;BME280;46641;48.904;9.126;2023-04-01T17:04:41;97423.53;;;15.39;52.23
60820;BME280;46641;48.904;9.126;2023-04-01T17:09:51;97419.91;;;15.40;52.16
60820;BME280;46641;48.904;9.126;2023-04-01T17:30:28;97462.69;;;15.42;52.29
60820;BME280;46641;48.904;9.126;2023-04-01T17:40:54;97487.44;;;15.41;52.27
60820;BME280;46641;48.904;9.126;2023-04-01T17:45:53;97489.47;;;15.39;52.10
60820;BME280;46641;48.904;9.126;2023-04-01T17:51:09;97495.13;;;15.30;52.00
60820;BME280;46641;48.904;9.126;2023-04-01T17:56:08;97487.63;;;15.27;52.73
60820;BME280;46641;48.904;9.126;2023-04-01T18:06:29;97491.69;;;15.29;52.46
60820;BME280;46641;48.904;9.126;2023-04-01T18:27:23;97520.28;;;15.32;52.42
60820;BME280;46641;48.904;9.126;2023-04-01T18:37:17;97530.84;;;15.32;52.34
60820;BME280;46641;48.904;9.126;2023-04-01T18:52:37;97553.94;;;15.30;52.54
60820;BME280;46641;48.904;9.126;2023-04-01T18:58:06;97564.69;;;15.29;52.32
60820;BME280;46641;48.904;9.126;2023-04-01T19:03:08;97559.59;;;15.27;52.49
60820;BME280;46641;48.904;9.126;2023-04-01T19:08:28;97567.72;;;15.26;52.36
60820;BME280;46641;48.904;9.126;2023-04-01T19:49:49;97574.41;;;15.15;52.44
60820;BME280;46641;48.904;9.126;2023-04-01T19:54:54;97581.91;;;15.11;52.55
60820;BME280;46641;48.904;9.126;2023-04-01T20:04:42;97593.66;;;15.09;52.58
60820;BME280;46641;48.904;9.126;2023-04-01T20:14:51;97607.41;;;15.04;52.75
60820;BME280;46641;48.904;9.126;2023-04-01T20:19:59;97608.63;;;15.02;52.45
60820;BME280;46641;48.904;9.126;2023-04-01T20:24:51;97620.97;;;15.01;52.72
60820;BME280;46641;48.904;9.126;2023-04-01T20:30:15;97626.63;;;14.98;52.74
60820;BME280;46641;48.904;9.126;2023-04-01T20:40:37;97634.53;;;14.91;52.79
60820;BME280;46641;48.904;9.126;2023-04-01T20:45:34;97640.25;;;14.95;52.80
60820;BME280;46641;48.904;9.126;2023-04-01T20:50:48;97647.09;;;14.89;52.91
60820;BME280;46641;48.904;9.126;2023-04-01T21:00:51;97646.28;;;14.89;52.87
60820;BME280;46641;48.904;9.126;2023-04-01T21:16:00;97654.97;;;14.83;52.95
60820;BME280;46641;48.904;9.126;2023-04-01T21:26:10;97661.44;;;14.80;53.04
60820;BME280;46641;48.904;9.126;2023-04-01T21:31:19;97671.34;;;14.78;52.85
60820;BME280;46641;48.904;9.126;2023-04-01T21:41:56;97682.25;;;14.75;53.01
60820;BME280;46641;48.904;9.126;2023-04-01T21:47:25;97692.81;;;14.75;52.98
60820;BME280;46641;48.904;9.126;2023-04-01T21:57:57;97701.72;;;14.74;52.97
60820;BME280;46641;48.904;9.126;2023-04-01T22:08:33;97701.09;;;14.72;53.16
60820;BME280;46641;48.904;9.126;2023-04-01T22:13:41;97704.75;;;14.71;53.26
60820;BME280;46641;48.904;9.126;2023-04-01T22:18:34;97701.50;;;14.69;53.09
60820;BME280;46641;48.904;9.126;2023-04-01T22:24:02;97696.41;;;14.67;53.02
60820;BME280;46641;48.904;9.126;2023-04-01T22:29:27;97702.50;;;14.68;53.16
60820;BME280;46641;48.904;9.126;2023-04-01T22:50:41;97720.72;;;14.63;53.23
60820;BME280;46641;48.904;9.126;2023-04-01T22:55:38;97718.06;;;14.63;53.35
60820;BME280;46641;48.904;9.126;2023-04-01T23:00:39;97727.59;;;14.64;53.12
60820;BME280;46641;48.904;9.126;2023-04-01T23:05:35;97732.88;;;14.64;53.34
60820;BME280;46641;48.904;9.126;2023-04-01T23:10:39;97736.50;;;14.63;53.30
60820;BME280;46641;48.904;9.126;2023-04-01T23:15:32;97739.31;;;14.61;53.35
60820;BME280;46641;48.904;9.126;2023-04-01T23:20:34;97746.63;;;14.59;53.13
60820;BME280;46641;48.904;9.126;2023-04-01T23:25:50;97754.69;;;14.58;53.39
60820;BME280;46641;48.904;9.126;2023-04-01T23:36:37;97761.78;;;14.57;53.24
60820;BME280;46641;48.904;9.126;2023-04-01T23:40:56;97763.63;;;14.57;53.47
60820;BME280;46641;48.904;9.126;2023-04-01T23:45:46;97767.06;;;14.57;53.39
60820;BME280;46641;48.904;9.126;2023-04-01T23:50:37;97767.88;;;14.58;53.29
60820;BME280;46641;48.904;9.126;2023-04-01T23:55:31;97767.69;;;14.59;53.28
